createdAt,value
2023-03-27T19:14:42.751Z,97270.02
2023-03-27T19:17:15.269Z,97273.20
2023-03-27T19:19:46.575Z,97276.55
2023-03-27T19:22:15.323Z,97275.61
2023-03-27T19:25:15.784Z,97276.56
2023-03-27T19:27:47.399Z,97280.52
2023-03-27T19:30:15.766Z,97278.73
2023-03-27T19:33:04.652Z,97277.84
2023-03-27T19:36:23.681Z,97279.35
2023-03-27T19:38:52.930Z,97276.49
2023-03-27T19:41:27.106Z,97281.89
2023-03-27T19:43:55.813Z,97284.39
2023-03-27T19:46:31.528Z,97288.57
2023-03-27T19:48:59.702Z,97285.72
2023-03-27T19:51:29.274Z,97282.20
2023-03-27T19:54:01.913Z,97289.45
2023-03-27T19:56:31.065Z,97286.29
2023-03-27T19:59:01.827Z,97292.82
2023-03-27T20:01:31.035Z,97293.04
2023-03-27T20:03:59.917Z,97295.54
2023-03-27T20:06:30.109Z,97296.29
2023-03-27T20:09:02.808Z,97295.52
2023-03-27T20:11:30.831Z,97297.43
2023-03-27T20:14:00.381Z,97298.16
2023-03-27T20:16:29.584Z,97300.65
2023-03-27T20:19:04.315Z,97303.14
2023-03-27T20:21:39.023Z,97307.22
2023-03-27T20:24:10.044Z,97307.09
2023-03-27T20:26:39.897Z,97310.45
2023-03-27T20:29:09.481Z,97310.55
2023-03-27T20:31:39.174Z,97308.58
2023-03-27T20:34:08.117Z,97309.48
2023-03-27T20:36:38.713Z,97309.05
2023-03-27T20:39:09.143Z,97314.64
2023-03-27T20:42:16.797Z,97314.73
2023-03-27T20:44:45.631Z,97312.02
2023-03-27T20:47:14.865Z,97316.09
2023-03-27T20:49:43.206Z,97316.03
2023-03-27T20:52:12.999Z,97312.44
2023-03-27T20:54:41.432Z,97316.80
2023-03-27T20:57:08.690Z,97321.08
2023-03-27T20:59:36.371Z,97322.80
2023-03-27T21:02:04.144Z,97320.27
2023-03-27T21:04:32.400Z,97320.73
2023-03-27T21:06:59.555Z,97320.10
2023-03-27T21:09:27.373Z,97321.78
2023-03-27T21:11:55.393Z,97323.39
2023-03-27T21:14:23.346Z,97324.59
2023-03-27T21:16:50.610Z,97321.72
2023-03-27T21:19:17.577Z,97322.29
2023-03-27T21:21:45.282Z,97323.88
2023-03-27T21:24:12.905Z,97321.76
2023-03-27T21:26:39.793Z,97325.80
2023-03-27T21:29:08.610Z,97328.30
2023-03-27T21:31:35.192Z,97328.11
2023-03-27T21:34:01.783Z,97331.84
2023-03-27T21:36:29.737Z,97333.27
2023-03-27T21:38:57.222Z,97336.83
2023-03-27T21:41:25.560Z,97333.38
2023-03-27T21:43:52.474Z,97336.02
2023-03-27T21:46:19.120Z,97338.85
2023-03-27T21:48:50.690Z,97341.33
2023-03-27T21:51:18.540Z,97341.67
2023-03-27T21:53:46.049Z,97336.30
2023-03-27T21:56:13.237Z,97335.45
2023-03-27T21:58:40.238Z,97334.66
2023-03-27T22:01:08.393Z,97330.51
2023-03-27T22:03:36.717Z,97334.95
2023-03-27T22:06:11.528Z,97336.71
2023-03-27T22:08:39.873Z,97343.14
2023-03-27T22:11:11.593Z,97342.90
2023-03-27T22:13:39.540Z,97342.23
2023-03-27T22:16:12.520Z,97344.20
2023-03-27T22:18:40.453Z,97344.31
2023-03-27T22:21:22.911Z,97339.30
2023-03-27T22:23:50.816Z,97341.62
2023-03-27T22:26:19.223Z,97344.02
2023-03-27T22:28:46.811Z,97346.79
2023-03-27T22:31:13.514Z,97344.12
2023-03-27T22:33:41.061Z,97343.14
2023-03-27T22:36:11.046Z,97343.66
2023-03-27T22:38:39.095Z,97344.64
2023-03-27T22:41:07.516Z,97344.63
2023-03-27T22:43:34.523Z,97345.18
2023-03-27T22:46:09.090Z,97346.27
2023-03-27T22:48:36.237Z,97348.89
2023-03-27T22:51:06.649Z,97344.02
2023-03-27T22:53:36.625Z,97343.13
2023-03-27T22:56:10.671Z,97337.80
2023-03-27T22:58:45.760Z,97342.81
2023-03-27T23:01:20.968Z,97346.65
2023-03-27T23:23:08.715Z,97365.40
2023-03-27T23:25:35.289Z,97362.45
2023-03-27T23:28:01.866Z,97365.06
2023-03-27T23:30:28.487Z,97364.20
2023-03-27T23:32:55.463Z,97360.33
2023-03-27T23:35:22.081Z,97359.52
2023-03-27T23:37:49.014Z,97353.83
2023-03-27T23:40:15.995Z,97356.06
2023-03-27T23:42:42.569Z,97355.61
2023-03-27T23:45:09.922Z,97355.52
2023-03-27T23:47:38.620Z,97361.90
2023-03-27T23:50:05.880Z,97366.90
2023-03-27T23:52:32.992Z,97373.05
2023-03-27T23:54:59.534Z,97373.33
2023-03-27T23:57:26.266Z,97375.98
2023-03-27T23:59:53.150Z,97378.80
